Time;durP1;ratioP1;P1;durP2;ratioP2;P2;SDS_P1;SDS_P2;PMS_P1;PMS_P2;Temp;Humidity;BMP_temperature;BMP_pressure;BME280_temperature;BME280_humidity;BME280_pressure;Samples;Min_cycle;Max_cycle;Signal;HPM_P1;HPM_P2
2021/08/10 00:00:05;;;;;;;3.73;2.53;;;;;;;;;;5013925;28;20497;-55
2021/08/10 00:02:33;;;;;;;4.07;2.40;;;;;;;;;;5013958;28;20438;-55
2021/08/10 00:05:00;;;;;;;4.73;2.87;;;;;;;;;;5014154;28;20458;-56
2021/08/10 00:07:28;;;;;;;3.10;2.30;;;;;;;;;;5013835;28;20469;-55
2021/08/10 00:09:56;;;;;;;4.40;2.53;;;;;;;;;;5013848;28;21048;-55
2021/08/10 00:12:23;;;;;;;2.90;2.47;;;;;;;;;;5014302;28;20449;-55
2021/08/10 00:14:50;;;;;;;2.90;2.27;;;;;;;;;;5014438;28;20500;-55
2021/08/10 00:17:18;;;;;;;3.50;2.40;;;;;;;;;;5014564;28;20870;-53
2021/08/10 00:19:45;;;;;;;4.10;2.20;;;;;;;;;;5013686;28;20469;-55
2021/08/10 00:22:12;;;;;;;3.53;2.60;;;;;;;;;;5014216;28;20495;-54
2021/08/10 00:24:41;;;;;;;4.07;2.30;;;;;;;;;;5016665;28;20862;-55
2021/08/10 00:27:08;;;;;;;2.27;2.07;;;;;;;;;;5017621;28;20846;-55
2021/08/10 00:29:36;;;;;;;4.33;2.63;;;;;;;;;;5017352;28;21031;-55
2021/08/10 00:32:03;;;;;;;2.97;2.23;;;;;;;;;;5017570;28;20441;-55
2021/08/10 00:34:31;;;;;;;2.87;1.90;;;;;;;;;;5017573;28;20527;-53
2021/08/10 00:36:58;;;;;;;4.23;2.23;;;;;;;;;;5017567;28;20451;-54
2021/08/10 00:39:25;;;;;;;5.27;1.97;;;;;;;;;;5016955;28;20969;-53
2021/08/10 00:41:54;;;;;;;3.63;2.27;;;;;;;;;;5017139;28;20426;-55
2021/08/10 00:44:21;;;;;;;3.70;2.40;;;;;;;;;;5017030;28;20910;-54
2021/08/10 00:46:48;;;;;;;3.43;1.87;;;;;;;;;;5017343;28;20453;-54
2021/08/10 00:49:15;;;;;;;5.63;2.60;;;;;;;;;;5017115;28;20445;-55
2021/08/10 00:51:43;;;;;;;2.90;2.50;;;;;;;;;;5017322;28;20446;-55
2021/08/10 00:54:10;;;;;;;3.00;1.97;;;;;;;;;;5016739;28;20481;-55
2021/08/10 00:56:37;;;;;;;3.30;2.30;;;;;;;;;;5017011;28;20504;-55
2021/08/10 00:59:06;;;;;;;3.43;2.20;;;;;;;;;;5016994;28;20866;-55
2021/08/10 01:01:33;;;;;;;3.57;2.50;;;;;;;;;;5016921;28;20445;-54
2021/08/10 01:04:01;;;;;;;2.60;2.40;;;;;;;;;;5016909;28;20442;-55
2021/08/10 01:06:30;;;;;;;3.70;2.20;;;;;;;;;;5016817;28;20449;-54
2021/08/10 01:09:00;;;;;;;3.07;2.47;;;;;;;;;;5017045;28;20496;-55
2021/08/10 01:11:30;;;;;;;3.97;2.40;;;;;;;;;;5016413;28;20465;-56
2021/08/10 01:14:00;;;;;;;3.93;2.70;;;;;;;;;;5016350;28;20473;-55
2021/08/10 01:16:31;;;;;;;4.37;2.27;;;;;;;;;;5016732;28;20492;-54
2021/08/10 01:19:03;;;;;;;2.90;2.33;;;;;;;;;;5016647;28;20434;-55
2021/08/10 01:21:34;;;;;;;3.03;2.30;;;;;;;;;;5016253;28;20481;-55
2021/08/10 01:24:04;;;;;;;2.70;2.30;;;;;;;;;;5016508;28;20484;-55
2021/08/10 01:26:33;;;;;;;4.40;2.50;;;;;;;;;;5016626;28;20449;-53
2021/08/10 01:29:05;;;;;;;3.80;2.30;;;;;;;;;;5016115;28;20504;-54
2021/08/10 01:31:36;;;;;;;2.87;2.20;;;;;;;;;;5016525;28;20517;-54
2021/08/10 01:34:05;;;;;;;3.20;1.83;;;;;;;;;;5016384;28;20465;-55
2021/08/10 01:36:33;;;;;;;3.03;2.70;;;;;;;;;;5015279;28;20450;-55
2021/08/10 01:39:02;;;;;;;3.13;2.30;;;;;;;;;;5016266;28;20442;-54
2021/08/10 01:41:31;;;;;;;2.63;2.33;;;;;;;;;;5015756;28;20544;-54
2021/08/10 01:43:59;;;;;;;3.60;2.70;;;;;;;;;;5016102;28;20442;-54
2021/08/10 01:46:27;;;;;;;4.03;2.43;;;;;;;;;;5016100;28;20504;-54
2021/08/10 01:48:57;;;;;;;3.30;2.30;;;;;;;;;;5015982;28;20449;-53
2021/08/10 01:51:25;;;;;;;5.43;2.20;;;;;;;;;;5015893;28;20520;-53
2021/08/10 01:53:52;;;;;;;3.33;2.60;;;;;;;;;;5015811;28;20556;-55
2021/08/10 01:56:20;;;;;;;3.30;2.50;;;;;;;;;;5015847;28;20492;-54
2021/08/10 01:58:48;;;;;;;4.30;2.50;;;;;;;;;;5015901;28;20504;-55
2021/08/10 02:01:15;;;;;;;3.33;2.13;;;;;;;;;;5015782;28;20466;-55
2021/08/10 02:03:43;;;;;;;2.97;2.40;;;;;;;;;;5015699;28;20438;-54
2021/08/10 02:06:13;;;;;;;3.53;2.57;;;;;;;;;;5015672;28;20520;-54
2021/08/10 02:08:40;;;;;;;2.83;2.20;;;;;;;;;;5015722;28;20442;-55
2021/08/10 02:11:08;;;;;;;4.87;2.60;;;;;;;;;;5015538;28;20827;-55
2021/08/10 02:13:35;;;;;;;3.87;2.80;;;;;;;;;;5015173;28;20480;-55
2021/08/10 02:16:03;;;;;;;3.93;2.70;;;;;;;;;;5015649;28;20453;-55
2021/08/10 02:18:30;;;;;;;3.70;2.77;;;;;;;;;;5015188;28;20454;-54
2021/08/10 02:20:59;;;;;;;3.00;2.47;;;;;;;;;;5015069;28;20466;-54
2021/08/10 02:23:29;;;;;;;2.87;2.17;;;;;;;;;;5015645;28;20495;-54
2021/08/10 02:25:57;;;;;;;4.50;2.53;;;;;;;;;;5015573;28;20450;-55
2021/08/10 02:28:27;;;;;;;2.73;2.23;;;;;;;;;;5015479;28;20507;-54
2021/08/10 02:30:56;;;;;;;3.33;2.30;;;;;;;;;;5016081;28;20556;-55
2021/08/10 02:33:25;;;;;;;3.20;2.50;;;;;;;;;;5016031;28;20513;-55
2021/08/10 02:35:55;;;;;;;4.73;2.30;;;;;;;;;;5015392;28;20507;-54
2021/08/10 02:38:23;;;;;;;3.47;2.77;;;;;;;;;;5015281;28;20500;-55
2021/08/10 02:40:52;;;;;;;4.10;3.33;;;;;;;;;;5015068;28;20892;-55
2021/08/10 02:43:21;;;;;;;3.27;2.73;;;;;;;;;;5014910;28;20506;-55
2021/08/10 02:45:49;;;;;;;3.30;2.60;;;;;;;;;;5014760;28;20985;-54
2021/08/10 02:48:16;;;;;;;3.70;2.33;;;;;;;;;;5014236;28;20445;-54
2021/08/10 02:50:43;;;;;;;2.40;2.17;;;;;;;;;;5014965;28;20470;-55
2021/08/10 02:53:10;;;;;;;4.10;2.57;;;;;;;;;;5014910;28;20863;-55
2021/08/10 02:55:41;;;;;;;2.67;2.10;;;;;;;;;;5014619;28;20445;-55
2021/08/10 02:58:12;;;;;;;3.10;2.63;;;;;;;;;;5014906;28;20445;-55
2021/08/10 03:00:42;;;;;;;3.57;2.33;;;;;;;;;;5014885;28;20532;-55
2021/08/10 03:03:11;;;;;;;2.77;2.23;;;;;;;;;;5014357;28;20950;-55
2021/08/10 03:05:39;;;;;;;2.50;2.10;;;;;;;;;;5014777;28;20445;-55
2021/08/10 03:08:08;;;;;;;3.03;2.57;;;;;;;;;;5014593;28;20450;-54
2021/08/10 03:10:36;;;;;;;3.43;2.07;;;;;;;;;;5014484;28;20506;-56
2021/08/10 03:13:04;;;;;;;4.13;2.60;;;;;;;;;;5014476;28;20450;-55
2021/08/10 03:15:34;;;;;;;2.10;1.77;;;;;;;;;;5014821;28;20482;-55
2021/08/10 03:18:04;;;;;;;2.40;2.20;;;;;;;;;;5014497;28;20796;-55
2021/08/10 03:20:32;;;;;;;2.53;1.93;;;;;;;;;;5014333;28;20465;-57
2021/08/10 03:23:00;;;;;;;5.80;2.43;;;;;;;;;;5014207;28;20450;-56
2021/08/10 03:25:28;;;;;;;3.90;2.40;;;;;;;;;;5015618;28;20564;-55
2021/08/10 03:27:56;;;;;;;2.30;2.10;;;;;;;;;;5014569;28;20496;-56
2021/08/10 03:30:23;;;;;;;2.57;1.87;;;;;;;;;;5014104;28;20469;-54
2021/08/10 03:32:54;;;;;;;4.40;2.53;;;;;;;;;;5015063;28;20515;-54
2021/08/10 03:35:22;;;;;;;2.37;2.17;;;;;;;;;;5013924;28;20561;-55
2021/08/10 03:37:50;;;;;;;3.17;2.07;;;;;;;;;;5014296;28;20527;-54
2021/08/10 03:40:18;;;;;;;3.50;2.43;;;;;;;;;;5013880;28;20493;-54
2021/08/10 03:42:45;;;;;;;3.60;2.20;;;;;;;;;;5014086;28;20449;-55
2021/08/10 03:45:13;;;;;;;3.40;2.40;;;;;;;;;;5013998;28;20441;-54
2021/08/10 03:47:40;;;;;;;3.97;2.30;;;;;;;;;;5014005;28;20446;-55
2021/08/10 03:50:10;;;;;;;3.53;2.43;;;;;;;;;;5013752;28;20473;-55
2021/08/10 03:52:37;;;;;;;2.97;2.20;;;;;;;;;;5013958;28;20454;-54
2021/08/10 03:55:05;;;;;;;3.17;2.50;;;;;;;;;;5013332;28;21021;-54
2021/08/10 03:57:33;;;;;;;2.93;2.10;;;;;;;;;;5013403;28;20446;-54
2021/08/10 04:00:03;;;;;;;4.47;1.90;;;;;;;;;;5013188;28;20992;-54
2021/08/10 04:02:31;;;;;;;4.03;2.37;;;;;;;;;;5013428;28;20453;-54
2021/08/10 04:08:26;;;;;;;4.60;2.37;;;;;;;;;;5091629;27;20945;-55
2021/08/10 04:10:53;;;;;;;4.27;2.70;;;;;;;;;;5090677;28;20466;-54
2021/08/10 04:13:20;;;;;;;4.13;2.57;;;;;;;;;;5090902;28;20496;-54
2021/08/10 04:15:48;;;;;;;4.77;2.67;;;;;;;;;;5106242;22;20492;-54
2021/08/10 04:18:18;;;;;;;3.40;2.70;;;;;;;;;;5050408;28;20490;-54
2021/08/10 04:20:47;;;;;;;4.20;2.60;;;;;;;;;;5050280;28;20502;-55
2021/08/10 04:23:14;;;;;;;4.97;2.13;;;;;;;;;;5050537;28;20542;-55
2021/08/10 04:25:43;;;;;;;3.30;2.30;;;;;;;;;;5050338;28;20464;-55
2021/08/10 04:28:11;;;;;;;3.77;2.70;;;;;;;;;;5049875;28;20479;-55
2021/08/10 04:30:39;;;;;;;3.10;2.40;;;;;;;;;;5050030;28;20444;-55
2021/08/10 04:33:06;;;;;;;2.77;2.30;;;;;;;;;;5050459;28;20470;-55
2021/08/10 04:35:33;;;;;;;3.03;2.53;;;;;;;;;;5050857;28;20483;-57
2021/08/10 04:38:01;;;;;;;3.53;2.20;;;;;;;;;;5050545;28;20921;-55
2021/08/10 04:40:28;;;;;;;3.53;2.63;;;;;;;;;;5051381;28;20452;-55
2021/08/10 04:42:57;;;;;;;2.67;2.40;;;;;;;;;;5050819;28;20444;-55
2021/08/10 04:45:25;;;;;;;2.97;2.47;;;;;;;;;;5050016;28;20472;-55
2021/08/10 04:47:52;;;;;;;2.60;2.30;;;;;;;;;;5050521;28;20790;-55
2021/08/10 04:50:20;;;;;;;6.60;2.60;;;;;;;;;;5049620;28;20540;-57
2021/08/10 04:52:47;;;;;;;4.50;2.40;;;;;;;;;;5049564;28;20455;-55
2021/08/10 04:55:14;;;;;;;3.87;2.33;;;;;;;;;;5049734;28;20464;-55
2021/08/10 04:57:42;;;;;;;2.73;2.20;;;;;;;;;;5049402;28;20998;-56
2021/08/10 05:00:11;;;;;;;2.73;2.50;;;;;;;;;;5049430;28;20498;-56
2021/08/10 05:02:38;;;;;;;3.47;2.70;;;;;;;;;;5049734;28;20452;-56
2021/08/10 05:05:06;;;;;;;3.70;2.47;;;;;;;;;;5049344;28;20464;-55
2021/08/10 05:07:34;;;;;;;2.73;2.50;;;;;;;;;;5049540;28;20553;-55
2021/08/10 05:10:02;;;;;;;3.97;2.50;;;;;;;;;;5049583;28;20824;-56
2021/08/10 05:12:29;;;;;;;3.63;2.33;;;;;;;;;;5049642;28;20480;-54
2021/08/10 05:14:57;;;;;;;3.30;2.17;;;;;;;;;;5049297;28;20468;-56
2021/08/10 05:17:25;;;;;;;5.73;2.30;;;;;;;;;;5049667;28;20873;-55
2021/08/10 05:19:52;;;;;;;3.30;2.30;;;;;;;;;;5035417;28;20852;-55
2021/08/10 05:22:20;;;;;;;3.13;2.03;;;;;;;;;;5035919;28;20444;-55
2021/08/10 05:24:47;;;;;;;3.73;2.80;;;;;;;;;;5035516;28;21036;-55
2021/08/10 05:27:14;;;;;;;3.57;2.50;;;;;;;;;;5035973;28;20476;-54
2021/08/10 05:29:42;;;;;;;4.30;2.00;;;;;;;;;;5035884;28;20452;-55
2021/08/10 05:32:09;;;;;;;5.33;2.83;;;;;;;;;;5035784;28;20445;-55
2021/08/10 05:34:38;;;;;;;3.70;2.37;;;;;;;;;;5035528;28;20445;-55
2021/08/10 05:37:05;;;;;;;4.10;2.37;;;;;;;;;;5035738;28;20464;-55
2021/08/10 05:39:33;;;;;;;4.83;2.53;;;;;;;;;;5035760;28;20503;-56
2021/08/10 05:42:00;;;;;;;3.03;2.50;;;;;;;;;;5035197;28;20503;-57
2021/08/10 05:44:28;;;;;;;3.10;2.47;;;;;;;;;;5035462;28;20868;-55
2021/08/10 05:46:55;;;;;;;3.50;2.50;;;;;;;;;;5035230;28;20539;-54
2021/08/10 05:49:22;;;;;;;6.20;3.10;;;;;;;;;;5035132;28;20991;-55
2021/08/10 05:51:51;;;;;;;3.40;2.33;;;;;;;;;;5035372;28;20453;-57
2021/08/10 05:54:18;;;;;;;3.93;2.40;;;;;;;;;;5035133;28;20503;-57
2021/08/10 05:56:46;;;;;;;3.37;2.37;;;;;;;;;;5034986;28;20864;-57
2021/08/10 05:59:14;;;;;;;3.13;2.50;;;;;;;;;;5035259;28;20465;-56
2021/08/10 06:01:41;;;;;;;4.00;2.60;;;;;;;;;;5035610;28;20972;-57
2021/08/10 06:04:08;;;;;;;4.20;2.50;;;;;;;;;;5035154;28;20823;-56
2021/08/10 06:06:36;;;;;;;3.20;2.47;;;;;;;;;;5034929;28;20879;-56
2021/08/10 06:09:04;;;;;;;4.40;2.67;;;;;;;;;;5034795;28;20937;-57
2021/08/10 06:11:32;;;;;;;3.87;2.80;;;;;;;;;;5035130;28;20795;-57
2021/08/10 06:13:59;;;;;;;4.77;2.57;;;;;;;;;;5034513;28;20510;-56
2021/08/10 06:16:26;;;;;;;2.83;2.10;;;;;;;;;;5034479;28;20476;-57
2021/08/10 06:18:53;;;;;;;4.03;2.37;;;;;;;;;;5034531;28;20448;-56
2021/08/10 06:21:21;;;;;;;4.00;2.30;;;;;;;;;;5034828;28;20829;-56
2021/08/10 06:23:48;;;;;;;4.70;3.10;;;;;;;;;;5034890;28;20507;-56
2021/08/10 06:26:17;;;;;;;6.73;5.13;;;;;;;;;;5034551;28;20480;-57
2021/08/10 06:28:44;;;;;;;5.40;2.50;;;;;;;;;;5034649;28;20538;-57
2021/08/10 06:31:11;;;;;;;3.87;2.60;;;;;;;;;;5033748;28;20860;-58
2021/08/10 06:33:39;;;;;;;3.53;2.50;;;;;;;;;;5034308;28;20453;-57
2021/08/10 06:36:06;;;;;;;5.50;2.87;;;;;;;;;;5034369;28;20465;-58
2021/08/10 06:38:34;;;;;;;6.70;3.60;;;;;;;;;;5034514;28;20511;-55
2021/08/10 06:41:01;;;;;;;4.30;3.20;;;;;;;;;;5034005;28;20942;-58
2021/08/10 06:43:30;;;;;;;3.17;2.70;;;;;;;;;;5033916;28;20487;-57
2021/08/10 06:45:57;;;;;;;4.70;2.43;;;;;;;;;;5034201;28;20556;-57
2021/08/10 06:48:25;;;;;;;2.53;2.20;;;;;;;;;;5034017;28;20591;-57
2021/08/10 06:50:52;;;;;;;4.13;2.30;;;;;;;;;;5033908;28;20453;-57
2021/08/10 06:53:20;;;;;;;4.17;2.70;;;;;;;;;;5034355;28;20449;-57
2021/08/10 06:55:47;;;;;;;5.93;2.57;;;;;;;;;;5033744;28;20527;-57
2021/08/10 06:58:14;;;;;;;3.87;2.30;;;;;;;;;;5033930;28;20453;-57
2021/08/10 07:00:43;;;;;;;3.60;2.33;;;;;;;;;;5033685;28;20454;-57
2021/08/10 07:03:10;;;;;;;4.60;2.50;;;;;;;;;;5033760;28;20857;-57
2021/08/10 07:05:38;;;;;;;2.93;2.10;;;;;;;;;;5033578;28;20519;-56
2021/08/10 07:08:05;;;;;;;4.20;2.47;;;;;;;;;;5033536;28;20527;-57
2021/08/10 07:10:32;;;;;;;3.17;2.30;;;;;;;;;;5034601;28;20457;-57
2021/08/10 07:12:59;;;;;;;3.23;2.00;;;;;;;;;;5033551;28;20453;-57
2021/08/10 07:15:27;;;;;;;4.83;2.63;;;;;;;;;;5033285;28;20534;-57
2021/08/10 07:17:55;;;;;;;3.70;2.53;;;;;;;;;;5033895;28;20496;-58
2021/08/10 07:20:23;;;;;;;5.33;3.20;;;;;;;;;;5033613;28;20445;-58
2021/08/10 07:22:50;;;;;;;5.27;3.20;;;;;;;;;;5033322;28;20503;-58
2021/08/10 07:25:19;;;;;;;4.37;2.27;;;;;;;;;;5033608;28;20483;-57
2021/08/10 07:27:46;;;;;;;3.77;2.60;;;;;;;;;;5034191;28;20988;-57
2021/08/10 07:30:14;;;;;;;4.53;2.13;;;;;;;;;;5033275;28;20456;-58
2021/08/10 07:32:41;;;;;;;3.00;2.40;;;;;;;;;;5033500;28;20453;-56
2021/08/10 07:35:11;;;;;;;3.57;2.73;;;;;;;;;;5032597;28;20465;-57
2021/08/10 07:37:41;;;;;;;6.10;2.77;;;;;;;;;;5033030;28;20869;-57
2021/08/10 07:40:10;;;;;;;4.97;2.63;;;;;;;;;;5033267;28;20523;-55
2021/08/10 07:42:37;;;;;;;8.20;2.50;;;;;;;;;;5032802;28;20448;-56
2021/08/10 07:45:04;;;;;;;4.43;2.60;;;;;;;;;;5033409;28;20519;-56
2021/08/10 07:47:32;;;;;;;6.00;2.47;;;;;;;;;;5033185;28;20526;-57
2021/08/10 07:49:59;;;;;;;5.37;2.90;;;;;;;;;;5033351;28;20445;-56
2021/08/10 07:52:27;;;;;;;2.60;2.20;;;;;;;;;;5034017;28;20468;-56
2021/08/10 07:54:55;;;;;;;4.30;2.50;;;;;;;;;;5033149;28;20789;-57
2021/08/10 07:57:22;;;;;;;3.30;2.60;;;;;;;;;;5032728;28;20464;-57
2021/08/10 07:59:50;;;;;;;3.97;2.80;;;;;;;;;;5033026;28;20441;-56
2021/08/10 08:02:17;;;;;;;5.30;2.47;;;;;;;;;;5032385;28;20967;-57
2021/08/10 08:04:44;;;;;;;4.13;3.30;;;;;;;;;;5032878;28;20487;-56
2021/08/10 08:07:11;;;;;;;3.93;2.67;;;;;;;;;;5032679;28;20530;-56
2021/08/10 08:09:40;;;;;;;5.00;3.40;;;;;;;;;;5032821;28;20449;-56
2021/08/10 08:12:07;;;;;;;5.50;2.90;;;;;;;;;;5032995;28;20441;-56
2021/08/10 08:14:35;;;;;;;4.00;3.20;;;;;;;;;;5032668;28;20452;-57
2021/08/10 08:17:02;;;;;;;5.70;3.20;;;;;;;;;;5032567;28;20461;-56
2021/08/10 08:19:30;;;;;;;7.07;2.90;;;;;;;;;;5032875;28;20445;-56
2021/08/10 08:21:57;;;;;;;3.23;2.90;;;;;;;;;;5032708;28;21004;-57
2021/08/10 08:24:24;;;;;;;5.60;3.20;;;;;;;;;;5032586;28;20449;-57
2021/08/10 08:26:53;;;;;;;3.67;3.20;;;;;;;;;;5032624;28;20988;-57
2021/08/10 08:29:20;;;;;;;3.80;3.37;;;;;;;;;;5032709;28;20582;-57
2021/08/10 08:31:47;;;;;;;5.00;3.70;;;;;;;;;;5032395;28;20479;-56
2021/08/10 08:34:14;;;;;;;5.60;3.60;;;;;;;;;;5032466;28;20495;-57
2021/08/10 08:36:42;;;;;;;7.20;3.80;;;;;;;;;;5032647;28;20473;-57
2021/08/10 08:39:10;;;;;;;6.07;3.50;;;;;;;;;;5032771;28;20444;-57
2021/08/10 08:41:37;;;;;;;4.70;3.43;;;;;;;;;;5032728;28;20444;-57
2021/08/10 08:44:06;;;;;;;5.20;3.50;;;;;;;;;;5032753;28;20453;-57
2021/08/10 08:46:34;;;;;;;5.10;3.53;;;;;;;;;;5032275;28;20523;-57
2021/08/10 08:49:02;;;;;;;5.40;4.33;;;;;;;;;;5032525;28;20482;-57
2021/08/10 08:51:30;;;;;;;6.07;4.27;;;;;;;;;;5032712;28;20444;-57
2021/08/10 08:53:57;;;;;;;7.53;4.40;;;;;;;;;;5033834;28;20953;-56
2021/08/10 08:56:26;;;;;;;4.40;4.00;;;;;;;;;;5036246;28;20469;-56
2021/08/10 08:58:55;;;;;;;5.87;4.30;;;;;;;;;;5036199;28;20442;-56
2021/08/10 09:01:24;;;;;;;5.80;4.30;;;;;;;;;;5036122;28;20449;-56
2021/08/10 09:03:51;;;;;;;7.47;5.37;;;;;;;;;;5035979;28;20914;-56
2021/08/10 09:06:18;;;;;;;7.37;5.10;;;;;;;;;;5036307;28;20471;-55
2021/08/10 09:08:47;;;;;;;7.00;4.80;;;;;;;;;;5035881;28;20472;-56
2021/08/10 09:11:18;;;;;;;7.97;5.70;;;;;;;;;;5035638;28;20455;-55
2021/08/10 09:13:55;;;;;;;7.33;5.97;;;;;;;;;;5035771;28;20546;-55
2021/08/10 09:16:24;;;;;;;6.90;5.60;;;;;;;;;;5035595;28;20483;-56
2021/08/10 09:18:52;;;;;;;6.50;5.37;;;;;;;;;;5036018;28;20443;-56
2021/08/10 09:21:19;;;;;;;7.93;5.63;;;;;;;;;;5035892;28;20815;-56
2021/08/10 09:23:48;;;;;;;8.47;6.47;;;;;;;;;;5035533;28;20447;-54
2021/08/10 09:26:17;;;;;;;9.93;5.93;;;;;;;;;;5035205;28;20580;-55
2021/08/10 09:28:45;;;;;;;9.30;5.90;;;;;;;;;;5035247;28;20536;-56
2021/08/10 09:31:33;;;;;;;8.73;6.13;;;;;;;;;;5035454;28;20496;-55
2021/08/10 09:34:01;;;;;;;6.60;5.57;;;;;;;;;;5035950;28;20435;-56
2021/08/10 09:36:29;;;;;;;8.57;6.27;;;;;;;;;;5035296;28;21017;-56
2021/08/10 09:38:57;;;;;;;6.87;5.47;;;;;;;;;;5035680;28;20449;-56
2021/08/10 09:41:24;;;;;;;7.20;5.83;;;;;;;;;;5035672;28;20486;-56
2021/08/10 09:44:06;;;;;;;7.00;5.40;;;;;;;;;;5035902;28;20504;-56
2021/08/10 09:46:35;;;;;;;6.30;5.17;;;;;;;;;;5036342;28;20870;-56
2021/08/10 09:49:03;;;;;;;6.50;5.33;;;;;;;;;;5035565;28;20568;-56
2021/08/10 09:51:31;;;;;;;6.73;4.70;;;;;;;;;;5035408;28;20452;-56
2021/08/10 09:53:59;;;;;;;6.47;4.93;;;;;;;;;;5035550;28;20447;-56
2021/08/10 09:56:45;;;;;;;9.37;5.00;;;;;;;;;;5035730;28;20870;-56
2021/08/10 09:59:13;;;;;;;7.93;5.53;;;;;;;;;;5035012;28;20964;-56
2021/08/10 10:01:42;;;;;;;8.23;6.10;;;;;;;;;;5035236;28;20552;-53
2021/08/10 10:04:13;;;;;;;7.20;5.00;;;;;;;;;;5034624;28;20453;-56
2021/08/10 10:06:41;;;;;;;9.17;4.90;;;;;;;;;;5035020;28;20539;-56
2021/08/10 10:09:09;;;;;;;6.43;4.80;;;;;;;;;;5034724;28;20478;-55
2021/08/10 10:11:38;;;;;;;6.27;4.63;;;;;;;;;;5034998;28;20445;-55
2021/08/10 10:14:06;;;;;;;4.40;3.73;;;;;;;;;;5034881;28;20442;-55
2021/08/10 10:16:33;;;;;;;4.93;4.43;;;;;;;;;;5050449;22;20992;-58
2021/08/10 10:19:04;;;;;;;5.33;4.33;;;;;;;;;;5034780;28;20483;-58
2021/08/10 10:21:32;;;;;;;8.50;5.20;;;;;;;;;;5035456;28;20455;-58
2021/08/10 10:24:02;;;;;;;4.63;4.00;;;;;;;;;;5034406;28;20531;-58
2021/08/10 10:26:31;;;;;;;5.83;4.30;;;;;;;;;;5034463;28;21029;-58
2021/08/10 10:28:59;;;;;;;6.47;4.60;;;;;;;;;;5034188;28;20488;-57
2021/08/10 10:31:27;;;;;;;5.03;4.10;;;;;;;;;;5034409;28;20868;-58
2021/08/10 10:33:54;;;;;;;6.77;4.77;;;;;;;;;;5034736;28;20456;-58
2021/08/10 10:36:23;;;;;;;5.10;4.60;;;;;;;;;;5034928;28;20469;-59
2021/08/10 10:38:52;;;;;;;5.80;5.10;;;;;;;;;;5034865;28;20495;-57
2021/08/10 10:41:20;;;;;;;5.63;5.00;;;;;;;;;;5034576;28;20852;-57
2021/08/10 10:43:47;;;;;;;4.70;4.20;;;;;;;;;;5035459;28;20508;-57
2021/08/10 10:46:24;;;;;;;4.70;4.17;;;;;;;;;;5034258;28;20979;-60
2021/08/10 10:48:51;;;;;;;6.57;4.03;;;;;;;;;;5034129;28;20577;-57
2021/08/10 10:51:25;;;;;;;7.20;4.27;;;;;;;;;;5034256;28;20453;-58
2021/08/10 10:53:52;;;;;;;5.60;4.77;;;;;;;;;;5034330;28;20585;-57
2021/08/10 10:56:33;;;;;;;4.53;4.13;;;;;;;;;;5034358;28;20466;-57
2021/08/10 10:59:18;;;;;;;4.10;3.70;;;;;;;;;;5034295;28;20441;-57
2021/08/10 11:01:46;;;;;;;4.50;3.60;;;;;;;;;;5034336;28;20456;-57
2021/08/10 11:04:14;;;;;;;6.77;4.10;;;;;;;;;;5033826;28;20465;-58
2021/08/10 11:06:46;;;;;;;5.70;4.30;;;;;;;;;;5033450;28;21017;-58
2021/08/10 11:09:32;;;;;;;5.93;4.03;;;;;;;;;;5034666;28;20482;-58
2021/08/10 11:11:59;;;;;;;6.00;5.10;;;;;;;;;;5034343;28;20503;-58
2021/08/10 11:14:45;;;;;;;4.93;3.80;;;;;;;;;;5033824;28;20994;-58
2021/08/10 11:17:13;;;;;;;6.17;4.57;;;;;;;;;;5033078;28;20470;-58
2021/08/10 11:19:41;;;;;;;4.80;4.37;;;;;;;;;;5033577;28;20444;-57
2021/08/10 11:22:28;;;;;;;4.17;3.77;;;;;;;;;;5034004;28;20447;-56
2021/08/10 11:24:56;;;;;;;6.27;4.20;;;;;;;;;;5034014;28;20447;-58
2021/08/10 11:27:30;;;;;;;4.73;4.20;;;;;;;;;;5033608;28;20516;-56
2021/08/10 11:29:58;;;;;;;4.70;4.23;;;;;;;;;;5033913;28;20485;-58
2021/08/10 11:32:40;;;;;;;6.13;4.67;;;;;;;;;;5033437;28;20493;-57
2021/08/10 11:35:28;;;;;;;4.30;3.80;;;;;;;;;;5031723;28;20452;-58
2021/08/10 11:38:11;;;;;;;4.43;3.90;;;;;;;;;;5033477;28;20975;-58
2021/08/10 11:40:59;;;;;;;4.80;3.90;;;;;;;;;;5033673;28;20424;-58
2021/08/10 11:43:36;;;;;;;4.97;3.50;;;;;;;;;;5028564;28;20450;-58
2021/08/10 11:46:03;;;;;;;4.80;4.03;;;;;;;;;;5033838;28;20476;-58
2021/08/10 11:48:42;;;;;;;4.20;3.80;;;;;;;;;;5033166;28;20871;-58
2021/08/10 11:51:20;;;;;;;4.30;3.70;;;;;;;;;;5033794;28;20495;-57
2021/08/10 11:53:49;;;;;;;6.33;3.70;;;;;;;;;;5033413;28;20449;-57
2021/08/10 11:56:30;;;;;;;4.20;3.73;;;;;;;;;;5033631;28;20985;-57
2021/08/10 11:58:58;;;;;;;4.30;3.27;;;;;;;;;;5033494;28;20520;-57
2021/08/10 12:01:25;;;;;;;6.50;4.30;;;;;;;;;;5033417;28;20448;-58
2021/08/10 12:03:53;;;;;;;3.77;3.47;;;;;;;;;;5034659;28;20455;-57
2021/08/10 12:06:27;;;;;;;4.23;3.63;;;;;;;;;;5033630;28;21032;-59
2021/08/10 12:08:57;;;;;;;4.53;3.33;;;;;;;;;;5033374;28;21027;-58
2021/08/10 12:11:24;;;;;;;5.67;4.10;;;;;;;;;;5033448;28;20497;-56
2021/08/10 12:13:52;;;;;;;3.90;3.50;;;;;;;;;;5034467;28;20507;-58
2021/08/10 12:16:19;;;;;;;4.87;4.40;;;;;;;;;;5034039;28;20561;-58
2021/08/10 12:18:50;;;;;;;4.23;3.83;;;;;;;;;;5033011;28;20452;-57
2021/08/10 12:21:19;;;;;;;4.83;4.10;;;;;;;;;;5032770;28;20940;-59
2021/08/10 12:23:49;;;;;;;4.60;4.20;;;;;;;;;;5032801;28;20452;-57
2021/08/10 12:26:18;;;;;;;6.03;4.13;;;;;;;;;;5032921;28;20864;-57
2021/08/10 12:28:52;;;;;;;4.10;3.67;;;;;;;;;;5034180;28;20473;-57
2021/08/10 12:31:19;;;;;;;4.77;4.10;;;;;;;;;;5036867;28;20542;-57
2021/08/10 12:33:50;;;;;;;4.40;4.00;;;;;;;;;;5036941;28;20865;-57
2021/08/10 12:36:17;;;;;;;4.70;3.83;;;;;;;;;;5036348;28;20468;-55
2021/08/10 12:38:45;;;;;;;6.93;4.60;;;;;;;;;;5036877;28;20496;-57
2021/08/10 12:41:12;;;;;;;5.20;4.70;;;;;;;;;;5036526;28;20796;-57
2021/08/10 12:43:41;;;;;;;5.40;4.13;;;;;;;;;;5036705;28;20461;-58
2021/08/10 12:46:27;;;;;;;5.23;4.50;;;;;;;;;;5037370;28;20517;-58
2021/08/10 12:49:05;;;;;;;5.30;3.97;;;;;;;;;;5036911;28;20477;-57
2021/08/10 12:51:47;;;;;;;6.10;4.83;;;;;;;;;;5037065;28;20448;-57
2021/08/10 12:54:14;;;;;;;4.73;4.17;;;;;;;;;;5036717;28;20452;-57
2021/08/10 12:56:41;;;;;;;4.23;3.83;;;;;;;;;;5037158;28;20515;-58
2021/08/10 12:59:10;;;;;;;4.80;4.37;;;;;;;;;;5036583;28;20496;-57
2021/08/10 13:01:39;;;;;;;3.93;3.50;;;;;;;;;;5037314;28;20449;-59
2021/08/10 13:04:07;;;;;;;4.67;4.27;;;;;;;;;;5036811;28;20484;-58
2021/08/10 13:06:34;;;;;;;5.30;4.20;;;;;;;;;;5035686;28;20544;-58
2021/08/10 13:09:02;;;;;;;6.20;4.20;;;;;;;;;;5036064;28;20506;-57
2021/08/10 13:11:30;;;;;;;7.30;4.23;;;;;;;;;;5036534;28;20484;-59
2021/08/10 13:14:05;;;;;;;6.27;4.70;;;;;;;;;;5036372;28;20446;-58
2021/08/10 13:16:37;;;;;;;5.97;4.67;;;;;;;;;;5036216;28;20516;-60
2021/08/10 13:19:12;;;;;;;5.43;4.07;;;;;;;;;;5035637;28;20499;-59
2021/08/10 13:21:49;;;;;;;4.07;3.67;;;;;;;;;;5036596;28;20459;-58
2021/08/10 13:24:18;;;;;;;4.63;4.23;;;;;;;;;;5036796;28;20556;-59
2021/08/10 13:26:46;;;;;;;4.73;3.60;;;;;;;;;;5036693;28;20824;-58
2021/08/10 13:29:14;;;;;;;5.67;4.00;;;;;;;;;;5036364;28;20503;-58
2021/08/10 13:31:50;;;;;;;5.27;4.00;;;;;;;;;;5035966;28;20980;-57
2021/08/10 13:34:19;;;;;;;4.13;3.60;;;;;;;;;;5036420;28;20426;-58
2021/08/10 13:36:46;;;;;;;4.53;3.60;;;;;;;;;;5035894;28;20465;-58
2021/08/10 13:39:14;;;;;;;5.20;4.50;;;;;;;;;;5035085;28;20447;-59
2021/08/10 13:41:43;;;;;;;5.57;3.60;;;;;;;;;;5035509;28;20464;-58
2021/08/10 13:44:10;;;;;;;3.90;3.50;;;;;;;;;;5036032;28;20515;-60
2021/08/10 13:46:41;;;;;;;4.60;4.20;;;;;;;;;;5035639;28;20467;-58
2021/08/10 13:49:11;;;;;;;4.67;4.17;;;;;;;;;;5034942;28;20427;-57
2021/08/10 13:51:41;;;;;;;4.30;3.90;;;;;;;;;;5035137;28;20449;-58
2021/08/10 13:54:08;;;;;;;5.43;4.80;;;;;;;;;;5034693;28;20943;-57
2021/08/10 13:56:36;;;;;;;4.93;4.53;;;;;;;;;;5034388;28;20492;-57
2021/08/10 13:59:03;;;;;;;5.77;4.40;;;;;;;;;;5034736;28;20451;-57
2021/08/10 14:01:35;;;;;;;5.53;4.33;;;;;;;;;;5034734;28;20641;-58
2021/08/10 14:04:03;;;;;;;4.60;4.10;;;;;;;;;;5035850;28;20430;-56
2021/08/10 14:06:31;;;;;;;6.40;4.67;;;;;;;;;;5034722;28;20467;-56
2021/08/10 14:08:59;;;;;;;4.43;4.03;;;;;;;;;;5034755;28;20517;-57
2021/08/10 14:11:26;;;;;;;3.80;3.50;;;;;;;;;;5034738;28;20951;-62
2021/08/10 14:13:54;;;;;;;6.50;4.00;;;;;;;;;;5034305;28;20509;-56
2021/08/10 14:16:23;;;;;;;5.80;4.00;;;;;;;;;;5034670;28;20495;-57
2021/08/10 14:18:50;;;;;;;4.90;4.20;;;;;;;;;;5034830;28;20522;-57
2021/08/10 14:21:18;;;;;;;5.17;3.70;;;;;;;;;;5034643;28;20450;-57
2021/08/10 14:23:47;;;;;;;4.00;3.60;;;;;;;;;;5034588;28;20770;-58
2021/08/10 14:26:14;;;;;;;5.10;4.60;;;;;;;;;;5034262;28;20470;-57
2021/08/10 14:28:41;;;;;;;4.13;3.73;;;;;;;;;;5035030;28;20496;-58
2021/08/10 14:31:11;;;;;;;4.10;3.70;;;;;;;;;;5034388;28;20486;-59
2021/08/10 14:33:38;;;;;;;5.00;4.47;;;;;;;;;;5034380;28;20458;-58
2021/08/10 14:36:05;;;;;;;4.30;3.90;;;;;;;;;;5034126;28;20475;-58
2021/08/10 14:38:33;;;;;;;4.70;4.23;;;;;;;;;;5034377;28;20511;-58
2021/08/10 14:41:02;;;;;;;5.10;3.90;;;;;;;;;;5033934;28;20446;-57
2021/08/10 14:43:29;;;;;;;4.80;4.10;;;;;;;;;;5033862;28;20450;-57
2021/08/10 14:45:57;;;;;;;4.33;3.90;;;;;;;;;;5033638;28;20454;-57
2021/08/10 14:48:24;;;;;;;4.53;4.10;;;;;;;;;;5034020;28;20452;-58
2021/08/10 14:50:51;;;;;;;5.07;4.23;;;;;;;;;;5033210;28;21071;-57
2021/08/10 14:53:18;;;;;;;4.53;4.13;;;;;;;;;;5034098;28;20446;-57
2021/08/10 14:55:46;;;;;;;5.43;4.93;;;;;;;;;;5033923;28;20482;-59